createdAt,value
2023-01-13T00:00:32.305Z,100750.53
2023-01-13T00:03:37.596Z,100756.34
2023-01-13T00:06:39.971Z,100777.53
2023-01-13T00:09:42.623Z,100752.59
2023-01-13T00:12:44.943Z,100773.19
2023-01-13T00:16:05.759Z,100777.59
2023-01-13T00:19:08.105Z,100770.50
2023-01-13T00:22:10.685Z,100747.19
2023-01-13T00:25:13.135Z,100762.94
2023-01-13T00:28:15.689Z,100735.78
2023-01-13T00:31:20.642Z,100739.03
2023-01-13T00:34:23.358Z,100733.59
2023-01-13T00:37:26.147Z,100780.44
2023-01-13T00:40:28.732Z,100740.47
2023-01-13T00:43:32.642Z,100750.56
2023-01-13T00:46:35.307Z,100747.84
2023-01-13T00:49:37.638Z,100749.19
2023-01-13T00:52:42.207Z,100760.69
2023-01-13T00:55:44.708Z,100749.28
2023-01-13T00:58:48.056Z,100771.53
2023-01-13T01:01:50.356Z,100769.69
2023-01-13T01:04:53.006Z,100744.12
2023-01-13T01:07:55.372Z,100763.13
2023-01-13T01:11:06.202Z,100734.31
2023-01-13T01:14:11.760Z,100727.50
2023-01-13T01:17:14.345Z,100751.66
2023-01-13T01:20:17.221Z,100752.75
2023-01-13T01:23:19.837Z,100745.44
2023-01-13T01:26:26.543Z,100713.38
2023-01-13T01:29:29.270Z,100745.16
2023-01-13T01:32:34.320Z,100740.78
2023-01-13T01:35:40.208Z,100744.56
2023-01-13T01:38:42.846Z,100712.81
2023-01-13T01:42:05.390Z,100738.06
2023-01-13T01:45:22.616Z,100710.38
2023-01-13T01:48:26.173Z,100700.84
2023-01-13T01:51:33.795Z,100727.19
2023-01-13T01:54:52.574Z,100703.28
2023-01-13T01:58:25.868Z,100724.22
2023-01-13T02:01:28.922Z,100729.44
2023-01-13T02:04:36.358Z,100685.41
2023-01-13T02:07:41.082Z,100694.94
2023-01-13T02:10:48.213Z,100715.59
2023-01-13T02:13:50.527Z,100713.38
2023-01-13T02:17:16.274Z,100716.06
2023-01-13T02:21:03.738Z,100676.12
2023-01-13T02:24:53.592Z,100706.53
2023-01-13T02:28:20.792Z,100709.78
2023-01-13T02:31:42.103Z,100704.00
2023-01-13T02:34:55.958Z,100675.47
2023-01-13T02:38:00.607Z,100629.06
2023-01-13T02:41:51.511Z,100695.03
2023-01-13T02:45:02.449Z,100684.41
2023-01-13T02:48:08.084Z,100672.25
2023-01-13T02:51:16.702Z,100695.31
2023-01-13T02:54:25.665Z,100691.25
2023-01-13T02:57:31.676Z,100688.53
2023-01-13T03:00:36.769Z,100685.28
2023-01-13T03:03:39.399Z,100657.59
2023-01-13T03:06:50.511Z,100679.28
2023-01-13T03:10:11.210Z,100664.66
2023-01-13T03:13:41.498Z,100680.97
2023-01-13T03:16:49.983Z,100664.34
2023-01-13T03:20:35.353Z,100674.41
2023-01-13T03:23:50.787Z,100669.53
2023-01-13T03:26:58.392Z,100647.31
2023-01-13T03:30:37.544Z,100676.88
2023-01-13T03:33:46.416Z,100667.91
2023-01-13T03:36:54.097Z,100645.38
2023-01-13T03:40:04.167Z,100663.53
2023-01-13T03:43:30.767Z,100644.00
2023-01-13T03:46:43.507Z,100635.88
2023-01-13T03:49:52.459Z,100652.16
2023-01-13T03:53:15.742Z,100658.09
2023-01-13T03:56:30.653Z,100623.87
2023-01-13T03:59:38.334Z,100624.97
2023-01-13T04:03:11.303Z,100652.41
2023-01-13T04:06:18.559Z,100649.69
2023-01-13T04:09:20.880Z,100656.63
2023-01-13T04:12:23.405Z,100669.06
2023-01-13T04:15:28.637Z,100671.22
2023-01-13T04:18:31.728Z,100672.84
2023-01-13T04:21:35.165Z,100652.44
2023-01-13T04:24:37.726Z,100657.03
2023-01-13T04:27:40.055Z,100658.66
2023-01-13T04:30:43.831Z,100670.63
2023-01-13T04:33:46.150Z,100668.97
2023-01-13T04:36:48.782Z,100663.50
2023-01-13T04:39:51.263Z,100642.31
2023-01-13T04:42:53.872Z,100676.00
2023-01-13T04:45:56.380Z,100668.94
2023-01-13T04:48:59.089Z,100640.44
2023-01-13T04:52:03.784Z,100660.22
2023-01-13T04:55:07.622Z,100675.44
2023-01-13T04:58:10.998Z,100664.28
2023-01-13T05:01:13.710Z,100664.00
2023-01-13T05:04:17.103Z,100668.94
2023-01-13T05:07:25.653Z,100651.78
2023-01-13T05:10:28.113Z,100675.78
2023-01-13T05:13:49.323Z,100688.00
2023-01-13T05:17:00.541Z,100687.25
2023-01-13T05:20:04.842Z,100673.94
2023-01-13T05:23:25.777Z,100669.03
2023-01-13T05:26:28.427Z,100662.06
2023-01-13T05:29:30.783Z,100629.47
2023-01-13T05:32:33.434Z,100667.75
2023-01-13T05:35:39.138Z,100664.22
2023-01-13T05:38:42.266Z,100702.25
2023-01-13T05:42:03.378Z,100672.34
2023-01-13T05:45:06.502Z,100677.25
2023-01-13T05:48:08.788Z,100662.28
2023-01-13T05:51:13.044Z,100652.78
2023-01-13T05:54:15.352Z,100685.31
2023-01-13T05:57:17.993Z,100660.91
2023-01-13T06:00:20.699Z,100684.75
2023-01-13T06:03:24.714Z,100663.56
2023-01-13T06:06:27.065Z,100664.69
2023-01-13T06:09:29.736Z,100677.50
2023-01-13T06:12:32.123Z,100704.34
2023-01-13T06:15:34.731Z,100661.94
2023-01-13T06:18:37.042Z,100699.50
2023-01-13T06:21:40.572Z,100703.88
2023-01-13T06:24:45.897Z,100701.72
2023-01-13T06:27:49.349Z,100670.69
2023-01-13T06:30:56.973Z,100693.75
2023-01-13T06:34:09.091Z,100680.50
2023-01-13T06:37:15.116Z,100702.75
2023-01-13T06:40:18.269Z,100688.03
2023-01-13T06:43:20.786Z,100697.87
2023-01-13T06:46:23.529Z,100700.59
2023-01-13T06:49:25.894Z,100683.28
2023-01-13T06:52:30.496Z,100692.47
2023-01-13T06:55:32.840Z,100689.81
2023-01-13T06:58:35.537Z,100695.28
2023-01-13T07:01:38.039Z,100697.41
2023-01-13T07:04:40.916Z,100691.16
2023-01-13T07:07:43.562Z,100685.16
2023-01-13T07:10:46.476Z,100705.56
2023-01-13T07:14:07.711Z,100721.84
2023-01-13T07:17:10.611Z,100723.25
2023-01-13T07:20:13.155Z,100680.00
2023-01-13T07:23:15.804Z,100724.00
2023-01-13T07:26:18.488Z,100692.97
2023-01-13T07:29:24.294Z,100708.06
2023-01-13T07:32:26.649Z,100712.38
2023-01-13T07:35:29.301Z,100685.69
2023-01-13T07:38:33.275Z,100698.16
2023-01-13T07:41:54.503Z,100699.22
2023-01-13T07:44:59.023Z,100639.00
2023-01-13T07:48:01.781Z,100718.06
2023-01-13T07:51:06.621Z,100722.63
2023-01-13T07:54:09.375Z,100707.94
2023-01-13T07:57:14.204Z,100705.37
2023-01-13T08:00:20.625Z,100651.47
2023-01-13T08:03:24.384Z,100727.00
2023-01-13T08:06:26.969Z,100740.56
2023-01-13T08:09:29.754Z,100741.59
2023-01-13T08:12:52.363Z,100719.09
2023-01-13T08:16:08.281Z,100715.09
2023-01-13T08:19:10.621Z,100750.97
2023-01-13T08:22:13.404Z,100759.13
2023-01-13T08:25:15.801Z,100760.34
2023-01-13T08:28:18.560Z,100738.06
2023-01-13T08:31:21.030Z,100756.00
2023-01-13T08:34:23.833Z,100772.56
2023-01-13T08:37:26.589Z,100758.69
2023-01-13T08:40:29.541Z,100764.59
2023-01-13T08:43:31.892Z,100760.25
2023-01-13T08:46:35.233Z,100737.69
2023-01-13T08:49:37.590Z,100733.34
2023-01-13T08:52:41.004Z,100773.91
2023-01-13T08:55:43.977Z,100749.44
2023-01-13T08:58:46.790Z,100749.37
2023-01-13T09:01:49.476Z,100767.66
2023-01-13T09:04:53.415Z,100773.94
2023-01-13T09:07:55.811Z,100762.66
2023-01-13T09:10:58.764Z,100772.44
2023-01-13T09:14:03.266Z,100717.81
2023-01-13T09:17:07.573Z,100775.16
2023-01-13T09:20:11.119Z,100780.28
2023-01-13T09:23:13.886Z,100766.09
2023-01-13T09:26:21.181Z,100680.53
2023-01-13T09:29:24.137Z,100694.37
2023-01-13T09:32:26.648Z,100741.94
2023-01-13T09:35:32.248Z,100777.22
2023-01-13T09:38:43.112Z,100765.28
2023-01-13T09:42:24.839Z,100769.66
2023-01-13T09:46:05.550Z,100672.06
2023-01-13T09:49:26.140Z,100767.97
2023-01-13T09:52:31.215Z,100665.94
2023-01-13T09:55:54.955Z,100762.94
2023-01-13T09:58:57.797Z,100763.22
2023-01-13T10:02:18.536Z,100743.16
2023-01-13T10:05:47.402Z,100767.06
2023-01-13T10:08:50.650Z,100737.94
2023-01-13T10:12:17.053Z,100753.38
2023-01-13T10:15:26.517Z,100735.13
2023-01-13T10:18:49.546Z,100752.81
2023-01-13T10:22:37.185Z,100755.00
2023-01-13T10:26:14.798Z,100757.97
2023-01-13T10:29:30.480Z,100769.59
2023-01-13T10:32:34.628Z,100661.44
2023-01-13T10:36:14.406Z,100730.88
2023-01-13T10:39:17.215Z,100770.03
2023-01-13T10:42:24.534Z,100729.91
2023-01-13T10:45:27.376Z,100716.00
2023-01-13T10:48:57.304Z,100716.03
2023-01-13T10:52:02.088Z,100733.38
2023-01-13T10:55:23.531Z,100703.78
2023-01-13T10:58:30.122Z,100729.28
2023-01-13T11:01:33.170Z,100724.31
2023-01-13T11:04:43.357Z,100705.75
2023-01-13T11:07:52.502Z,100707.38
2023-01-13T11:10:59.786Z,100706.53
2023-01-13T11:14:23.309Z,100683.97
2023-01-13T11:17:53.627Z,100674.63
2023-01-13T11:20:58.995Z,100691.88
2023-01-13T11:24:26.565Z,100688.06
2023-01-13T11:27:49.400Z,100683.12
2023-01-13T11:31:13.277Z,100657.97
2023-01-13T11:34:24.817Z,100655.53
2023-01-13T11:37:40.793Z,100678.31
2023-01-13T11:40:47.014Z,100651.75
2023-01-13T11:44:08.827Z,100686.53
2023-01-13T11:47:13.469Z,100657.28
2023-01-13T11:50:26.022Z,100673.53
2023-01-13T11:53:56.856Z,100647.03
2023-01-13T11:57:05.651Z,100666.53
2023-01-13T12:00:19.847Z,100659.97
2023-01-13T12:03:48.244Z,100647.50
2023-01-13T12:07:36.999Z,100633.78
2023-01-13T12:11:06.169Z,100628.28
2023-01-13T12:14:30.864Z,100619.91
2023-01-13T12:18:11.520Z,100606.50
2023-01-13T12:21:37.615Z,100538.13
2023-01-13T12:24:51.126Z,100611.25
2023-01-13T12:28:11.172Z,100594.84
2023-01-13T12:31:18.790Z,100517.78
2023-01-13T12:34:49.823Z,100594.59
2023-01-13T12:38:15.216Z,100567.25
2023-01-13T12:41:37.559Z,100609.53
2023-01-13T12:45:12.378Z,100617.13
2023-01-13T12:48:45.651Z,100607.03
2023-01-13T12:52:12.630Z,100603.69
2023-01-13T12:55:19.433Z,100618.41
2023-01-13T12:58:29.190Z,100599.84
2023-01-13T13:01:36.186Z,100599.22
2023-01-13T13:04:43.309Z,100595.88
2023-01-13T13:07:53.254Z,100576.81
2023-01-13T13:11:02.808Z,100600.28
2023-01-13T13:14:10.739Z,100594.09
2023-01-13T13:17:19.545Z,100603.75
2023-01-13T13:21:00.278Z,100612.63
2023-01-13T13:24:05.195Z,100622.25
2023-01-13T13:27:31.863Z,100624.34
2023-01-13T13:30:43.241Z,100619.41
2023-01-13T13:33:59.245Z,100593.34
2023-01-13T13:37:17.833Z,100617.72
2023-01-13T13:40:39.254Z,100604.62
2023-01-13T13:44:02.580Z,100606.22
2023-01-13T13:47:06.471Z,100554.66
2023-01-13T13:50:15.222Z,100612.75
2023-01-13T13:53:19.946Z,100612.66
2023-01-13T13:56:26.104Z,100617.56
2023-01-13T13:59:33.707Z,100624.16
2023-01-13T14:02:37.728Z,100627.13
2023-01-13T14:05:52.184Z,100625.75
2023-01-13T14:08:54.359Z,100634.44
2023-01-13T14:12:08.947Z,100588.41
2023-01-13T14:15:28.850Z,100634.44
2023-01-13T14:18:35.781Z,100635.19
2023-01-13T14:21:38.571Z,100636.53
2023-01-13T14:24:47.174Z,100632.47
2023-01-13T14:27:49.842Z,100643.06
2023-01-13T14:30:56.699Z,100642.47
2023-01-13T14:34:02.901Z,100626.87
2023-01-13T14:37:25.532Z,100627.69
2023-01-13T14:40:36.168Z,100629.28
2023-01-13T14:43:44.576Z,100628.72
2023-01-13T14:46:47.026Z,100634.69
2023-01-13T14:50:11.446Z,100631.44
2023-01-13T14:53:49.814Z,100630.69
2023-01-13T14:56:55.192Z,100636.41
2023-01-13T15:00:15.947Z,100575.16
2023-01-13T15:03:21.030Z,100646.19
2023-01-13T15:06:27.032Z,100564.03
2023-01-13T15:09:39.916Z,100637.50
2023-01-13T15:12:43.841Z,100631.75
2023-01-13T15:15:50.870Z,100610.06
2023-01-13T15:18:54.963Z,100605.16
2023-01-13T15:21:57.766Z,100628.84
2023-01-13T15:25:00.196Z,100621.72
2023-01-13T15:28:07.323Z,100625.28
2023-01-13T15:31:10.255Z,100537.03
2023-01-13T15:34:12.997Z,100590.38
2023-01-13T15:37:16.891Z,100631.31
2023-01-13T15:40:26.511Z,100615.84
2023-01-13T15:43:47.477Z,100634.78
2023-01-13T15:46:52.274Z,100636.16
2023-01-13T15:49:54.810Z,100615.81
2023-01-13T15:52:57.658Z,100622.38
2023-01-13T15:56:00.707Z,100617.50
2023-01-13T15:59:04.921Z,100653.34
2023-01-13T16:02:14.945Z,100657.13
2023-01-13T16:05:17.955Z,100637.66
2023-01-13T16:08:22.885Z,100634.94
2023-01-13T16:11:25.815Z,100659.62
2023-01-13T16:14:29.497Z,100611.59
2023-01-13T16:17:34.341Z,100581.28
2023-01-13T16:20:36.833Z,100653.28
2023-01-13T16:23:39.997Z,100562.69
2023-01-13T16:26:42.342Z,100626.59
2023-01-13T16:29:46.227Z,100616.78
2023-01-13T16:32:48.709Z,100579.16
2023-01-13T16:36:10.126Z,100619.50
2023-01-13T16:39:21.578Z,100620.06
2023-01-13T16:42:24.472Z,100643.13
2023-01-13T16:45:27.460Z,100628.28
2023-01-13T16:48:30.180Z,100624.16
2023-01-13T16:51:33.429Z,100620.63
2023-01-13T16:54:36.484Z,100645.53
2023-01-13T16:57:38.907Z,100642.22
2023-01-13T17:00:41.602Z,100627.25
2023-01-13T17:03:44.546Z,100636.78
2023-01-13T17:06:59.175Z,100626.97
2023-01-13T17:10:03.717Z,100639.00
2023-01-13T17:13:15.604Z,100621.53
2023-01-13T17:16:21.973Z,100621.91
2023-01-13T17:19:25.697Z,100639.44
2023-01-13T17:22:28.158Z,100628.38
2023-01-13T17:25:30.820Z,100617.28
2023-01-13T17:28:33.280Z,100649.34
2023-01-13T17:31:36.409Z,100635.81
2023-01-13T17:34:40.203Z,100650.50
2023-01-13T17:37:42.701Z,100649.09
2023-01-13T17:40:44.929Z,100655.38
2023-01-13T17:43:47.628Z,100655.97
2023-01-13T17:46:50.292Z,100639.19
2023-01-13T17:49:52.986Z,100652.25
2023-01-13T17:52:55.616Z,100636.47
2023-01-13T17:55:58.561Z,100641.94
2023-01-13T17:59:47.107Z,100653.28
2023-01-13T18:02:49.785Z,100675.56
2023-01-13T18:05:52.543Z,100617.41
2023-01-13T18:08:55.463Z,100645.41
2023-01-13T18:11:58.886Z,100650.87
2023-01-13T18:15:01.242Z,100664.09
2023-01-13T18:18:04.166Z,100672.50
2023-01-13T18:21:26.127Z,100620.16
2023-01-13T18:24:47.731Z,100661.19
2023-01-13T18:27:54.159Z,100683.38
2023-01-13T18:30:57.123Z,100667.56
2023-01-13T18:34:05.069Z,100677.06
2023-01-13T18:37:10.217Z,100680.81
2023-01-13T18:40:16.069Z,100684.06
2023-01-13T18:44:08.806Z,100688.69
2023-01-13T18:47:11.240Z,100687.31
2023-01-13T18:50:14.017Z,100690.56
2023-01-13T18:53:16.494Z,100663.97
2023-01-13T18:56:19.264Z,100650.97
2023-01-13T18:59:21.821Z,100623.06
2023-01-13T19:02:26.472Z,100689.16
2023-01-13T19:05:29.011Z,100694.91
2023-01-13T19:08:33.698Z,100689.00
2023-01-13T19:11:36.308Z,100685.25
2023-01-13T19:14:40.466Z,100705.31
2023-01-13T19:17:45.089Z,100626.44
2023-01-13T19:20:50.517Z,100644.00
2023-01-13T19:23:54.541Z,100706.72
2023-01-13T19:26:57.225Z,100680.19
2023-01-13T19:30:00.621Z,100705.41
2023-01-13T19:33:03.818Z,100714.41
2023-01-13T19:36:07.911Z,100716.84
2023-01-13T19:39:10.563Z,100698.78
2023-01-13T19:42:32.310Z,100727.56
2023-01-13T19:45:36.261Z,100727.06
2023-01-13T19:48:40.157Z,100716.53
2023-01-13T19:51:43.384Z,100728.97
2023-01-13T19:54:46.305Z,100731.69
2023-01-13T19:57:49.213Z,100714.31
2023-01-13T20:00:55.166Z,100745.97
2023-01-13T20:04:03.237Z,100774.75
2023-01-13T20:07:08.364Z,100760.81
2023-01-13T20:10:11.209Z,100774.03
2023-01-13T20:13:14.548Z,100778.84
2023-01-13T20:16:17.306Z,100741.63
2023-01-13T20:19:19.661Z,100762.31
2023-01-13T20:22:22.381Z,100744.41
2023-01-13T20:25:25.653Z,100698.66
2023-01-13T20:28:28.355Z,100737.75
2023-01-13T20:31:33.001Z,100755.72
2023-01-13T20:34:37.276Z,100744.81
2023-01-13T20:37:43.989Z,100739.59
2023-01-13T20:40:46.669Z,100734.44
2023-01-13T20:44:07.802Z,100741.97
2023-01-13T20:47:15.925Z,100737.59
2023-01-13T20:50:18.556Z,100733.47
2023-01-13T20:53:21.574Z,100715.91
2023-01-13T20:56:24.080Z,100719.19
2023-01-13T20:59:26.807Z,100750.19
2023-01-13T21:02:31.497Z,100693.88
2023-01-13T21:05:36.024Z,100704.28
2023-01-13T21:08:38.429Z,100770.34
2023-01-13T21:12:01.949Z,100758.87
2023-01-13T21:15:22.917Z,100740.34
2023-01-13T21:18:45.687Z,100753.13
2023-01-13T21:21:50.485Z,100748.59
2023-01-13T21:24:53.272Z,100745.87
2023-01-13T21:28:03.204Z,100691.88
2023-01-13T21:31:08.771Z,100744.16
2023-01-13T21:34:11.844Z,100711.28
2023-01-13T21:37:18.380Z,100660.16
2023-01-13T21:40:20.970Z,100714.53
2023-01-13T21:43:42.369Z,100703.97
2023-01-13T21:47:03.338Z,100715.13
2023-01-13T21:50:13.588Z,100693.09
2023-01-13T21:53:15.961Z,100719.06
2023-01-13T21:56:18.600Z,100681.06
2023-01-13T21:59:20.943Z,100697.09
2023-01-13T22:02:31.774Z,100690.31
2023-01-13T22:05:35.800Z,100711.37
2023-01-13T22:08:38.142Z,100715.00
2023-01-13T22:11:40.762Z,100708.31
2023-01-13T22:14:43.145Z,100713.62
2023-01-13T22:17:48.364Z,100730.00
2023-01-13T22:20:50.678Z,100760.44
2023-01-13T22:23:54.843Z,100779.63
2023-01-13T22:26:57.200Z,100801.72
2023-01-13T22:30:00.207Z,100801.66
2023-01-13T22:33:02.660Z,100805.47
2023-01-13T22:36:06.161Z,100752.59
2023-01-13T22:39:09.195Z,100819.63
2023-01-13T22:42:11.834Z,100791.44
2023-01-13T22:45:14.783Z,100781.03
2023-01-13T22:48:17.409Z,100837.63
2023-01-13T22:51:19.744Z,100831.31
2023-01-13T22:54:22.368Z,100833.69
2023-01-13T22:57:24.687Z,100830.94
2023-01-13T23:00:27.468Z,100826.50
2023-01-13T23:03:29.850Z,100822.12
2023-01-13T23:06:33.990Z,100783.88
2023-01-13T23:09:36.361Z,100808.47
2023-01-13T23:12:39.017Z,100800.88
2023-01-13T23:15:41.484Z,100792.13
2023-01-13T23:18:48.194Z,100780.09
2023-01-13T23:21:50.576Z,100762.94
2023-01-13T23:24:53.174Z,100748.34
2023-01-13T23:27:55.983Z,100716.25
2023-01-13T23:30:58.910Z,100724.53
2023-01-13T23:34:01.575Z,100717.41
2023-01-13T23:37:04.306Z,100728.34
2023-01-13T23:40:07.279Z,100762.59
2023-01-13T23:43:09.946Z,100727.84
2023-01-13T23:46:13.969Z,100734.88
2023-01-13T23:49:16.702Z,100727.78
2023-01-13T23:52:19.266Z,100757.66
2023-01-13T23:55:25.654Z,100751.87
2023-01-13T23:58:30.928Z,100743.75
